Time;durP1;ratioP1;P1;durP2;ratioP2;P2;SDS_P1;SDS_P2;PMS_P1;PMS_P2;Temp;Humidity;BMP_temperature;BMP_pressure;BME280_temperature;BME280_humidity;BME280_pressure;Samples;Min_cycle;Max_cycle;Signal;HPM_P1;HPM_P2
2020/12/29 00:01:39;;;;;;;10.30;7.90;;;5.10;97.00;;;;;;5056260;28;20645;-76
2020/12/29 00:04:24;;;;;;;12.70;9.93;;;5.20;97.10;;;;;;5037004;28;20033;-77
2020/12/29 00:06:55;;;;;;;13.65;10.75;;;5.20;97.10;;;;;;5024418;28;20036;-78
2020/12/29 00:09:23;;;;;;;13.35;10.88;;;5.20;97.10;;;;;;5037516;28;20045;-77
2020/12/29 00:11:50;;;;;;;15.45;11.30;;;5.20;97.10;;;;;;5054303;28;20506;-77
2020/12/29 00:14:17;;;;;;;18.33;13.20;;;5.20;97.10;;;;;;5036709;28;20033;-77
2020/12/29 00:16:44;;;;;;;16.83;13.67;;;5.20;97.00;;;;;;5024830;28;20392;-77
2020/12/29 00:19:13;;;;;;;17.13;13.20;;;5.20;97.30;;;;;;5058313;28;20391;-78
2020/12/29 00:21:40;;;;;;;17.37;13.67;;;5.20;97.00;;;;;;5060382;28;20487;-82
2020/12/29 00:24:07;;;;;;;17.98;13.57;;;5.20;97.00;;;;;;5019144;28;20029;-79
2020/12/29 00:26:34;;;;;;;16.52;12.43;;;5.20;97.00;;;;;;5015029;28;20040;-79
2020/12/29 00:29:01;;;;;;;16.65;11.45;;;5.20;97.00;;;;;;5034391;28;20045;-79
2020/12/29 00:31:31;;;;;;;11.88;10.25;;;5.20;97.00;;;;;;5032765;28;20037;-79
2020/12/29 00:33:58;;;;;;;15.15;11.90;;;5.20;97.00;;;;;;5053306;28;20411;-79
2020/12/29 00:36:25;;;;;;;13.57;10.55;;;5.10;96.90;;;;;;5034619;28;20041;-77
2020/12/29 00:38:52;;;;;;;13.32;10.45;;;5.10;97.00;;;;;;5049413;28;20037;-77
2020/12/29 00:41:19;;;;;;;13.50;10.82;;;5.20;97.00;;;;;;5050173;28;20052;-77
2020/12/29 00:43:46;;;;;;;14.23;11.40;;;5.10;97.00;;;;;;5048731;28;20040;-79
2020/12/29 00:46:19;;;;;;;13.10;10.07;;;5.20;97.10;;;;;;5052726;28;20029;-79
2020/12/29 00:48:46;;;;;;;12.07;9.82;;;5.20;97.10;;;;;;5032687;28;20369;-76
2020/12/29 00:51:16;;;;;;;11.13;8.83;;;5.20;97.10;;;;;;5024856;28;20044;-79
2020/12/29 00:53:51;;;;;;;12.05;9.80;;;5.20;97.10;;;;;;5033344;28;20032;-79
2020/12/29 00:56:19;;;;;;;12.65;10.35;;;5.10;97.00;;;;;;5039902;28;20037;-79
2020/12/29 00:58:49;;;;;;;14.45;9.82;;;5.10;97.00;;;;;;5040502;28;20053;-79
2020/12/29 01:01:17;;;;;;;11.80;9.77;;;5.10;97.00;;;;;;5053108;28;20037;-79
2020/12/29 01:04:23;;;;;;;11.75;9.73;;;5.10;97.00;;;;;;5066445;28;20040;-79
2020/12/29 01:06:49;;;;;;;11.20;8.75;;;5.10;97.10;;;;;;5054010;28;20050;-79
2020/12/29 01:09:21;;;;;;;13.07;10.30;;;5.10;97.10;;;;;;5034479;28;20079;-79
2020/12/29 01:11:50;;;;;;;12.82;9.50;;;5.10;97.10;;;;;;5043210;28;20044;-79
2020/12/29 01:14:17;;;;;;;10.00;8.70;;;5.10;97.10;;;;;;5035481;28;20036;-79
2020/12/29 01:16:56;;;;;;;13.63;10.45;;;5.10;97.10;;;;;;5052588;28;20063;-79
2020/12/29 01:19:23;;;;;;;11.90;9.75;;;5.10;97.20;;;;;;5057884;28;20391;-77
2020/12/29 01:21:52;;;;;;;14.75;9.57;;;5.10;97.10;;;;;;5058036;28;20040;-76
2020/12/29 01:24:19;;;;;;;11.75;8.65;;;5.10;97.10;;;;;;5036064;28;20044;-78
2020/12/29 01:26:46;;;;;;;10.93;8.63;;;5.10;97.10;;;;;;5054287;28;20496;-79
2020/12/29 01:29:12;;;;;;;15.00;9.27;;;5.10;97.10;;;;;;5037777;28;20052;-79
2020/12/29 01:31:39;;;;;;;12.00;9.90;;;5.10;97.10;;;;;;5034785;28;20033;-79
2020/12/29 01:34:05;;;;;;;10.95;9.07;;;5.10;97.10;;;;;;5050538;28;20048;-79
2020/12/29 01:36:32;;;;;;;10.55;7.93;;;5.10;97.10;;;;;;5057613;28;20071;-79
2020/12/29 01:38:58;;;;;;;10.75;9.05;;;5.20;97.10;;;;;;5024600;28;20041;-79
2020/12/29 01:41:25;;;;;;;10.27;8.20;;;5.20;97.10;;;;;;5056460;28;20036;-79
2020/12/29 01:43:51;;;;;;;10.45;8.57;;;5.10;97.10;;;;;;5006142;28;20060;-79
2020/12/29 01:46:18;;;;;;;6.87;5.17;;;5.10;97.10;;;;;;5045527;28;20506;-79
2020/12/29 01:48:45;;;;;;;9.00;6.53;;;5.10;97.10;;;;;;5038517;28;20044;-79
2020/12/29 01:51:11;;;;;;;10.88;7.90;;;5.10;97.10;;;;;;5061723;28;20083;-79
2020/12/29 01:53:39;;;;;;;13.07;8.57;;;5.10;97.10;;;;;;5035163;28;20041;-79
2020/12/29 01:56:09;;;;;;;9.45;7.60;;;5.10;97.10;;;;;;5056735;28;20033;-79
2020/12/29 01:58:38;;;;;;;10.27;8.47;;;5.10;97.10;;;;;;5005798;28;20029;-79
2020/12/29 02:01:05;;;;;;;10.70;8.70;;;5.10;97.10;;;;;;5043618;28;20033;-79
2020/12/29 02:03:32;;;;;;;9.43;7.45;;;5.10;97.10;;;;;;5037305;28;20048;-79
2020/12/29 02:05:58;;;;;;;9.27;8.02;;;5.00;97.10;;;;;;5058699;28;20043;-80
2020/12/29 02:08:25;;;;;;;10.80;9.57;;;5.10;97.20;;;;;;5020356;28;20048;-79
2020/12/29 02:10:54;;;;;;;10.88;8.77;;;5.10;97.20;;;;;;5051690;28;20033;-79
2020/12/29 02:13:21;;;;;;;10.68;8.35;;;5.00;97.10;;;;;;5035146;28;20223;-79
2020/12/29 02:15:48;;;;;;;12.40;8.48;;;5.00;97.10;;;;;;5051431;28;20041;-79
2020/12/29 02:18:14;;;;;;;8.95;7.63;;;5.00;97.10;;;;;;5020134;28;20401;-79
2020/12/29 02:20:40;;;;;;;11.03;9.10;;;5.00;97.20;;;;;;5057228;28;20041;-78
2020/12/29 02:23:11;;;;;;;12.32;9.05;;;5.00;97.20;;;;;;5036337;28;20037;-78
2020/12/29 02:25:37;;;;;;;10.23;7.78;;;5.00;97.20;;;;;;5011184;28;20037;-79
2020/12/29 02:28:05;;;;;;;9.07;7.53;;;5.00;97.20;;;;;;5022597;28;20036;-79
2020/12/29 02:30:33;;;;;;;9.80;8.05;;;5.00;97.20;;;;;;5038559;28;20037;-79
2020/12/29 02:32:59;;;;;;;11.15;8.90;;;5.00;97.20;;;;;;5051123;28;20040;-79
2020/12/29 02:35:26;;;;;;;11.67;9.33;;;4.90;97.20;;;;;;5059687;28;20040;-79
2020/12/29 02:37:52;;;;;;;8.98;7.57;;;5.00;97.50;;;;;;5035154;28;20032;-79
2020/12/29 02:40:19;;;;;;;13.68;10.25;;;5.00;97.20;;;;;;5054441;28;20037;-79
2020/12/29 02:42:45;;;;;;;9.48;8.18;;;5.00;97.20;;;;;;5055524;28;20045;-79
2020/12/29 02:45:12;;;;;;;8.75;7.15;;;5.00;97.20;;;;;;5054348;28;20063;-79
2020/12/29 02:47:38;;;;;;;13.57;9.77;;;5.00;97.20;;;;;;5021657;28;20044;-79
2020/12/29 02:50:06;;;;;;;11.93;9.27;;;5.00;97.40;;;;;;5021014;28;20041;-79
2020/12/29 02:52:32;;;;;;;12.60;10.52;;;5.00;97.10;;;;;;5023080;28;20052;-79
2020/12/29 02:54:59;;;;;;;12.60;9.63;;;4.90;97.10;;;;;;5037828;28;20033;-79
2020/12/29 02:57:25;;;;;;;10.00;8.52;;;5.00;97.20;;;;;;5060370;28;20037;-79
2020/12/29 02:59:51;;;;;;;10.77;8.88;;;5.00;97.20;;;;;;5052648;28;20044;-78
2020/12/29 03:02:18;;;;;;;12.40;10.10;;;5.00;97.20;;;;;;5042294;28;20028;-78
2020/12/29 03:04:44;;;;;;;10.95;8.60;;;5.00;97.20;;;;;;5050069;28;20044;-79
2020/12/29 03:07:12;;;;;;;11.13;9.75;;;5.10;97.20;;;;;;5004923;28;20047;-79
2020/12/29 03:09:39;;;;;;;12.17;9.97;;;5.10;97.20;;;;;;5050339;28;20033;-78
2020/12/29 03:12:05;;;;;;;13.52;9.57;;;5.10;97.10;;;;;;5052707;28;20024;-79
2020/12/29 03:14:32;;;;;;;11.07;9.80;;;5.00;97.10;;;;;;5038617;28;20039;-79
2020/12/29 03:16:58;;;;;;;11.80;8.90;;;5.10;97.10;;;;;;5041769;28;20375;-78
2020/12/29 03:19:25;;;;;;;14.33;9.63;;;5.10;97.40;;;;;;5035914;28;20041;-79
2020/12/29 03:21:51;;;;;;;11.95;9.68;;;5.10;97.10;;;;;;5036563;28;20049;-79
2020/12/29 03:24:18;;;;;;;10.65;9.18;;;5.10;97.10;;;;;;5049804;28;20059;-79
2020/12/29 03:26:45;;;;;;;12.05;9.68;;;5.10;97.10;;;;;;5053269;28;20048;-79
2020/12/29 03:29:12;;;;;;;12.68;10.02;;;5.10;97.10;;;;;;5037093;28;20361;-79
2020/12/29 03:31:43;;;;;;;13.80;10.93;;;5.10;97.10;;;;;;5058324;28;20028;-79
2020/12/29 03:34:21;;;;;;;10.98;9.85;;;5.10;97.10;;;;;;5034259;28;20075;-79
2020/12/29 03:36:48;;;;;;;10.98;8.82;;;5.10;97.10;;;;;;5044172;28;20037;-79
2020/12/29 03:39:14;;;;;;;12.52;10.20;;;5.10;97.10;;;;;;5051858;28;20047;-78
2020/12/29 03:41:41;;;;;;;12.52;10.73;;;5.10;97.10;;;;;;5019705;28;20051;-78
2020/12/29 03:44:07;;;;;;;14.40;11.05;;;5.10;97.10;;;;;;5033637;28;20041;-79
2020/12/29 03:46:34;;;;;;;12.20;10.75;;;5.10;97.10;;;;;;5035641;28;20398;-79
2020/12/29 03:49:00;;;;;;;8.00;6.73;;;5.10;97.10;;;;;;5047691;28;20053;-78
2020/12/29 03:51:27;;;;;;;14.02;9.13;;;5.10;97.10;;;;;;5037644;28;20391;-79
2020/12/29 03:53:53;;;;;;;10.88;9.02;;;5.00;97.10;;;;;;5037455;28;20048;-78
2020/12/29 03:56:20;;;;;;;12.07;10.83;;;5.00;97.10;;;;;;5053945;28;20053;-79
2020/12/29 03:58:47;;;;;;;15.00;11.57;;;5.00;97.10;;;;;;5034838;28;20037;-79
2020/12/29 04:01:13;;;;;;;11.25;10.15;;;5.00;97.10;;;;;;5032957;28;20041;-79
2020/12/29 04:03:43;;;;;;;12.25;10.48;;;5.00;97.10;;;;;;5050360;28;20049;-76
2020/12/29 04:06:10;;;;;;;12.40;11.10;;;5.00;97.20;;;;;;5042211;28;20043;-79
2020/12/29 04:08:37;;;;;;;10.73;9.63;;;5.00;97.20;;;;;;5039394;28;20047;-79
2020/12/29 04:11:03;;;;;;;12.20;10.65;;;5.00;97.10;;;;;;5049798;28;20048;-79
2020/12/29 04:13:30;;;;;;;12.57;10.10;;;5.00;97.10;;;;;;5035588;28;20070;-79
2020/12/29 04:15:57;;;;;;;14.20;10.70;;;5.00;97.10;;;;;;5052480;28;20056;-79
2020/12/29 04:18:24;;;;;;;11.67;9.10;;;4.90;97.10;;;;;;5037023;28;20048;-79
2020/12/29 04:20:50;;;;;;;12.03;10.73;;;4.90;97.10;;;;;;5024141;28;20037;-79
2020/12/29 04:23:17;;;;;;;12.63;10.67;;;4.90;97.10;;;;;;5050858;28;20040;-79
2020/12/29 04:25:43;;;;;;;14.30;11.77;;;4.90;97.10;;;;;;5035126;28;20041;-76
2020/12/29 04:28:10;;;;;;;13.07;10.95;;;4.90;97.10;;;;;;5052255;28;20053;-76
2020/12/29 04:30:36;;;;;;;13.23;11.40;;;4.80;97.30;;;;;;5017147;28;20037;-79
2020/12/29 04:33:03;;;;;;;11.80;8.00;;;4.80;97.10;;;;;;5035724;28;20053;-79
2020/12/29 04:35:29;;;;;;;11.70;10.50;;;4.90;97.10;;;;;;5054343;28;20396;-78
2020/12/29 04:37:56;;;;;;;13.23;9.00;;;4.90;97.20;;;;;;5030471;28;20025;-78
2020/12/29 04:40:23;;;;;;;11.93;10.65;;;4.80;97.10;;;;;;5056813;28;20040;-77
2020/12/29 04:42:52;;;;;;;12.33;11.03;;;4.80;97.10;;;;;;5057841;28;20053;-78
2020/12/29 04:45:19;;;;;;;12.17;8.90;;;4.90;97.20;;;;;;5059314;28;20044;-77
2020/12/29 04:47:46;;;;;;;14.13;11.20;;;4.80;97.10;;;;;;5057109;28;20134;-78
2020/12/29 04:50:14;;;;;;;14.73;11.33;;;4.80;97.10;;;;;;5054870;28;20044;-77
2020/12/29 04:52:44;;;;;;;12.53;10.23;;;4.80;97.10;;;;;;5060364;28;20048;-77
2020/12/29 04:55:11;;;;;;;14.35;10.57;;;4.80;97.20;;;;;;5057020;28;20040;-77
2020/12/29 04:57:43;;;;;;;14.53;12.83;;;4.80;97.20;;;;;;5056986;28;20041;-78
2020/12/29 05:00:09;;;;;;;13.80;11.60;;;4.80;97.10;;;;;;5054749;28;20044;-77
2020/12/29 05:02:36;;;;;;;13.53;11.23;;;4.80;97.10;;;;;;5059020;28;20053;-77
2020/12/29 05:05:03;;;;;;;12.07;10.83;;;4.80;97.20;;;;;;5059695;28;20040;-77
2020/12/29 05:07:31;;;;;;;12.50;10.37;;;4.80;97.20;;;;;;5057307;28;20032;-77
2020/12/29 05:10:07;;;;;;;10.73;9.05;;;4.80;97.20;;;;;;5004649;28;20484;-77
2020/12/29 05:12:46;;;;;;;14.93;11.50;;;4.80;97.20;;;;;;5057869;28;20036;-77
2020/12/29 05:15:12;;;;;;;15.03;12.27;;;4.80;97.20;;;;;;5036614;28;20029;-77
2020/12/29 05:17:39;;;;;;;13.30;11.90;;;4.80;97.20;;;;;;5042691;28;20505;-77
2020/12/29 05:20:06;;;;;;;15.07;13.33;;;4.80;97.20;;;;;;5054437;28;20057;-77
2020/12/29 05:22:36;;;;;;;14.45;12.15;;;4.90;97.20;;;;;;5038933;28;20057;-77
2020/12/29 05:25:04;;;;;;;11.65;8.73;;;4.90;97.20;;;;;;5057333;28;20037;-77
2020/12/29 05:27:35;;;;;;;11.60;10.20;;;4.80;97.10;;;;;;5058433;28;20040;-77
2020/12/29 05:30:04;;;;;;;14.02;10.98;;;4.90;97.10;;;;;;5053534;28;20043;-77
2020/12/29 05:32:37;;;;;;;16.35;12.77;;;4.90;97.10;;;;;;5052724;28;20033;-77
2020/12/29 05:35:09;;;;;;;14.70;13.10;;;4.90;97.10;;;;;;5039262;28;20037;-77
2020/12/29 05:37:37;;;;;;;13.50;11.50;;;4.90;97.10;;;;;;5053932;28;20049;-77
2020/12/29 05:40:27;;;;;;;15.17;13.17;;;4.90;97.10;;;;;;5017619;28;20032;-76
2020/12/29 05:42:55;;;;;;;16.47;13.43;;;4.90;97.10;;;;;;5068875;28;20056;-79
2020/12/29 05:45:27;;;;;;;14.57;12.23;;;4.90;97.10;;;;;;5050567;28;20053;-79
2020/12/29 05:48:00;;;;;;;18.58;13.13;;;4.90;97.10;;;;;;5035239;28;20033;-76
2020/12/29 05:50:28;;;;;;;17.23;12.97;;;4.90;97.10;;;;;;5051396;28;20052;-76
2020/12/29 05:52:59;;;;;;;22.43;16.07;;;4.90;97.10;;;;;;5016323;28;20391;-76
2020/12/29 05:55:25;;;;;;;20.13;14.77;;;4.90;97.10;;;;;;5039600;28;20056;-76
2020/12/29 05:58:05;;;;;;;29.13;17.48;;;4.90;97.10;;;;;;5036311;28;20029;-79
2020/12/29 06:00:33;;;;;;;30.47;18.97;;;4.90;97.10;;;;;;5057050;28;20036;-79
2020/12/29 06:03:02;;;;;;;25.40;18.47;;;4.90;97.10;;;;;;5034908;28;20069;-78
2020/12/29 06:05:30;;;;;;;23.83;17.33;;;4.90;97.10;;;;;;5058470;28;20052;-78
2020/12/29 06:07:59;;;;;;;25.20;17.57;;;4.90;97.10;;;;;;5020521;28;20045;-77
2020/12/29 06:10:27;;;;;;;27.50;18.77;;;4.90;97.10;;;;;;5060712;28;20032;-79
2020/12/29 06:13:21;;;;;;;33.07;22.97;;;4.90;97.10;;;;;;5051485;28;20029;-79
2020/12/29 06:15:57;;;;;;;28.10;18.87;;;4.90;97.10;;;;;;5053899;28;20040;-79
2020/12/29 06:18:36;;;;;;;31.83;19.60;;;4.90;97.10;;;;;;5046535;28;20029;-80
2020/12/29 06:21:07;;;;;;;32.50;19.97;;;4.90;97.20;;;;;;5052819;28;20498;-79
2020/12/29 06:23:48;;;;;;;28.67;19.40;;;4.90;97.20;;;;;;5054692;28;20415;-79
2020/12/29 06:26:19;;;;;;;31.98;21.85;;;4.90;97.20;;;;;;5038945;28;20047;-79
2020/12/29 06:28:50;;;;;;;28.10;17.97;;;5.00;97.20;;;;;;5050519;28;20036;-76
2020/12/29 06:31:32;;;;;;;27.97;19.10;;;5.00;97.20;;;;;;5054814;28;20048;-79
2020/12/29 06:34:02;;;;;;;30.60;17.97;;;5.00;97.20;;;;;;5054489;28;20047;-79
2020/12/29 06:36:29;;;;;;;26.13;17.90;;;5.00;97.20;;;;;;5037202;28;20288;-78
2020/12/29 06:39:06;;;;;;;32.40;21.73;;;5.00;97.20;;;;;;5057793;28;20044;-79
2020/12/29 06:41:34;;;;;;;35.17;23.03;;;5.00;97.20;;;;;;5039248;28;20037;-79
2020/12/29 06:44:03;;;;;;;31.50;20.90;;;5.00;97.20;;;;;;5052141;28;20041;-78
2020/12/29 06:46:30;;;;;;;33.28;21.55;;;5.00;97.20;;;;;;5023485;28;20033;-81
2020/12/29 06:48:57;;;;;;;27.93;18.73;;;5.00;97.20;;;;;;5054508;28;20463;-83
2020/12/29 06:51:24;;;;;;;29.27;19.30;;;5.00;97.20;;;;;;5018186;28;20051;-81
2020/12/29 06:53:51;;;;;;;33.10;21.58;;;5.00;97.30;;;;;;5015846;28;20036;-81
2020/12/29 06:56:18;;;;;;;32.25;22.25;;;4.90;97.20;;;;;;5003136;28;20033;-80
2020/12/29 06:58:45;;;;;;;30.48;20.67;;;4.90;97.20;;;;;;5016870;28;20037;-80
2020/12/29 07:01:24;;;;;;;27.60;19.53;;;4.90;97.30;;;;;;5035115;28;20040;-78
2020/12/29 07:04:07;;;;;;;34.85;22.08;;;4.90;97.30;;;;;;5051360;28;20048;-79
2020/12/29 07:06:35;;;;;;;33.60;24.15;;;5.00;97.30;;;;;;5015953;28;20041;-79
2020/12/29 07:09:08;;;;;;;30.57;21.53;;;5.00;97.30;;;;;;5034131;28;20508;-80
2020/12/29 07:11:37;;;;;;;31.67;20.55;;;5.00;97.30;;;;;;5049813;28;20648;-79
2020/12/29 07:14:05;;;;;;;30.58;21.13;;;5.00;97.30;;;;;;5049837;28;20036;-79
2020/12/29 07:16:34;;;;;;;31.00;22.33;;;5.00;97.30;;;;;;5032765;28;20029;-79
2020/12/29 07:19:13;;;;;;;33.33;22.15;;;5.00;97.30;;;;;;5047597;28;20510;-79
2020/12/29 07:21:48;;;;;;;28.37;20.00;;;5.00;97.30;;;;;;5048894;28;20055;-80
2020/12/29 07:24:17;;;;;;;26.95;18.42;;;4.90;97.20;;;;;;5031559;28;20451;-79
2020/12/29 07:26:45;;;;;;;29.83;21.30;;;4.90;97.30;;;;;;5046088;28;20033;-80
2020/12/29 07:29:11;;;;;;;24.37;16.80;;;4.90;97.30;;;;;;5045719;28;20072;-80
2020/12/29 07:31:43;;;;;;;27.37;19.73;;;4.90;97.30;;;;;;5031181;28;20051;-82
2020/12/29 07:34:12;;;;;;;29.60;19.48;;;4.90;97.30;;;;;;5028594;28;20077;-82
2020/12/29 07:36:45;;;;;;;27.57;18.43;;;4.80;97.30;;;;;;5019264;28;20507;-82
2020/12/29 07:39:14;;;;;;;22.87;16.47;;;4.80;97.30;;;;;;5038988;28;20044;-81
2020/12/29 07:41:41;;;;;;;21.80;15.07;;;4.80;97.30;;;;;;5035842;28;20055;-81
2020/12/29 07:44:07;;;;;;;21.48;15.50;;;4.80;97.40;;;;;;5020361;28;20424;-80
2020/12/29 07:46:35;;;;;;;29.53;19.17;;;4.80;97.40;;;;;;5054874;28;20033;-80
2020/12/29 07:49:03;;;;;;;27.17;16.77;;;4.70;97.30;;;;;;5049465;28;20037;-82
2020/12/29 07:51:29;;;;;;;25.03;15.97;;;4.70;97.30;;;;;;5036354;28;20049;-80
2020/12/29 07:54:05;;;;;;;23.20;15.33;;;4.70;97.30;;;;;;5032373;28;20032;-79
2020/12/29 07:56:32;;;;;;;23.60;14.80;;;4.70;97.40;;;;;;5054150;28;20043;-80
2020/12/29 07:59:09;;;;;;;21.92;12.85;;;4.70;97.40;;;;;;5034596;28;20047;-79
2020/12/29 08:01:56;;;;;;;25.40;15.27;;;4.70;97.40;;;;;;5006433;28;20037;-79
2020/12/29 08:04:31;;;;;;;25.02;14.68;;;4.60;97.30;;;;;;5055927;28;20037;-80
2020/12/29 08:06:59;;;;;;;23.13;13.67;;;4.60;97.40;;;;;;5047617;28;20041;-79
2020/12/29 08:09:25;;;;;;;25.77;14.13;;;4.60;97.40;;;;;;5044427;28;20080;-80
2020/12/29 08:11:52;;;;;;;30.77;17.93;;;4.60;97.40;;;;;;5050446;28;20507;-80
2020/12/29 08:14:18;;;;;;;30.77;18.58;;;4.70;97.40;;;;;;5055625;28;20041;-78
2020/12/29 08:16:45;;;;;;;28.95;17.33;;;4.60;97.40;;;;;;5018314;28;20384;-78
2020/12/29 08:19:12;;;;;;;33.27;19.07;;;4.60;97.40;;;;;;5030104;28;20041;-79
2020/12/29 08:21:39;;;;;;;30.90;17.43;;;4.60;97.40;;;;;;5049933;28;20049;-78
2020/12/29 08:24:06;;;;;;;33.37;18.83;;;4.60;97.40;;;;;;5016238;28;20038;-78
2020/12/29 08:26:33;;;;;;;31.53;18.77;;;4.60;97.40;;;;;;5015720;28;20033;-78
2020/12/29 08:29:01;;;;;;;31.03;18.70;;;4.60;97.40;;;;;;5030317;28;20048;-78
2020/12/29 08:31:29;;;;;;;33.87;18.57;;;4.50;97.30;;;;;;5035734;28;20066;-78
2020/12/29 08:33:58;;;;;;;35.30;19.40;;;4.50;97.30;;;;;;5049335;28;20076;-77
2020/12/29 08:36:27;;;;;;;30.90;17.73;;;4.50;97.40;;;;;;5050401;28;20049;-77
2020/12/29 08:39:36;;;;;;;30.77;16.77;;;4.50;97.30;;;;;;5050707;28;20043;-77
2020/12/29 08:42:03;;;;;;;26.13;15.93;;;4.40;97.40;;;;;;5045698;28;20036;-77
2020/12/29 08:44:31;;;;;;;28.10;15.73;;;4.40;97.40;;;;;;5030876;28;20040;-77
2020/12/29 08:46:58;;;;;;;26.63;15.63;;;4.40;97.30;;;;;;5048452;28;20365;-78
2020/12/29 08:49:29;;;;;;;22.10;13.70;;;4.40;97.40;;;;;;5049576;28;20048;-78
2020/12/29 08:51:56;;;;;;;23.93;14.30;;;4.40;97.40;;;;;;5030999;28;20450;-78
2020/12/29 08:54:23;;;;;;;23.60;13.73;;;4.30;97.30;;;;;;5045392;28;20032;-78
2020/12/29 08:56:59;;;;;;;23.23;14.47;;;4.30;97.40;;;;;;5048724;28;20041;-78
2020/12/29 08:59:33;;;;;;;21.63;13.43;;;4.30;97.40;;;;;;5032407;28;20480;-78
2020/12/29 09:01:59;;;;;;;19.57;11.90;;;4.30;97.40;;;;;;5015778;28;20040;-77
2020/12/29 09:04:36;;;;;;;19.03;11.27;;;4.30;97.40;;;;;;5030294;28;20408;-77
2020/12/29 09:07:11;;;;;;;20.27;12.53;;;4.30;97.40;;;;;;5031826;28;20056;-78
2020/12/29 09:09:52;;;;;;;21.40;12.60;;;4.30;97.30;;;;;;5029135;28;20060;-78
2020/12/29 09:12:20;;;;;;;21.50;12.20;;;4.30;97.30;;;;;;5047459;28;20399;-78
2020/12/29 09:14:54;;;;;;;22.17;12.53;;;4.30;97.30;;;;;;5046934;28;20029;-78
2020/12/29 09:17:22;;;;;;;19.00;11.80;;;4.30;97.30;;;;;;5029350;28;20503;-77
2020/12/29 09:20:13;;;;;;;20.53;12.83;;;4.30;97.40;;;;;;5046130;28;20033;-77
2020/12/29 09:22:48;;;;;;;21.17;12.50;;;4.30;97.30;;;;;;5051755;28;20037;-78
2020/12/29 09:25:28;;;;;;;20.90;12.13;;;4.40;97.30;;;;;;5056036;28;20051;-78
2020/12/29 09:28:24;;;;;;;24.20;14.43;;;4.40;97.30;;;;;;5056494;28;20043;-78
2020/12/29 09:31:07;;;;;;;25.73;15.17;;;4.40;97.30;;;;;;5056555;28;20040;-78
2020/12/29 09:33:36;;;;;;;24.60;14.87;;;4.50;97.30;;;;;;5036374;28;20571;-78
2020/12/29 09:36:04;;;;;;;23.47;14.30;;;4.50;97.20;;;;;;5058364;28;20028;-78
2020/12/29 09:38:31;;;;;;;29.00;17.53;;;4.40;97.20;;;;;;5037813;28;20037;-78
2020/12/29 09:41:02;;;;;;;30.37;17.57;;;4.40;97.10;;;;;;5052613;28;20384;-77
2020/12/29 09:43:29;;;;;;;25.73;15.13;;;4.40;97.10;;;;;;5014741;28;20555;-77
2020/12/29 09:45:57;;;;;;;25.23;15.33;;;4.40;97.10;;;;;;5050414;28;20037;-77
2020/12/29 09:48:23;;;;;;;30.53;18.13;;;4.40;97.20;;;;;;5052262;28;20419;-77
2020/12/29 09:50:50;;;;;;;24.63;15.10;;;4.40;97.20;;;;;;5036489;28;20044;-78
2020/12/29 09:53:17;;;;;;;26.27;15.77;;;4.50;97.20;;;;;;5021375;28;20028;-77
2020/12/29 09:55:43;;;;;;;27.80;16.33;;;4.50;97.20;;;;;;5052144;28;20496;-77
2020/12/29 09:58:10;;;;;;;28.53;17.43;;;4.50;97.20;;;;;;5054864;28;20492;-77
2020/12/29 10:00:36;;;;;;;22.47;14.23;;;4.50;97.10;;;;;;5040696;28;20396;-77
2020/12/29 10:03:03;;;;;;;24.60;14.83;;;4.50;97.20;;;;;;5055335;28;20052;-77
2020/12/29 10:05:29;;;;;;;26.77;16.13;;;4.40;97.10;;;;;;5051463;28;20059;-76
2020/12/29 10:07:56;;;;;;;27.63;16.57;;;4.50;97.10;;;;;;5040712;28;20040;-78
2020/12/29 10:10:23;;;;;;;28.87;16.00;;;4.40;97.10;;;;;;5050996;28;20045;-80
2020/12/29 10:12:49;;;;;;;27.23;15.37;;;4.40;97.10;;;;;;5017188;28;20041;-78
2020/12/29 10:15:16;;;;;;;29.48;16.95;;;4.50;97.20;;;;;;5047475;28;20061;-77
2020/12/29 10:17:42;;;;;;;26.40;16.48;;;4.50;97.20;;;;;;5049425;28;20049;-78
2020/12/29 10:20:08;;;;;;;24.27;14.03;;;4.50;97.20;;;;;;5034195;28;20041;-77
2020/12/29 10:22:35;;;;;;;26.57;16.27;;;4.50;97.10;;;;;;5046353;28;20401;-78
2020/12/29 10:25:01;;;;;;;22.93;14.50;;;4.50;97.10;;;;;;5049115;28;20044;-78
2020/12/29 10:27:28;;;;;;;21.00;12.90;;;4.50;97.20;;;;;;5018509;28;20032;-79
2020/12/29 10:29:54;;;;;;;21.33;13.17;;;4.60;97.20;;;;;;5054432;28;20029;-78
2020/12/29 10:32:21;;;;;;;21.47;13.23;;;4.60;97.20;;;;;;5050800;28;20396;-78
2020/12/29 10:34:50;;;;;;;23.58;14.23;;;4.60;97.20;;;;;;5052206;28;20519;-78
2020/12/29 10:37:17;;;;;;;19.83;12.27;;;4.70;97.20;;;;;;5033828;28;20033;-78
2020/12/29 10:39:44;;;;;;;20.10;12.93;;;4.70;97.20;;;;;;5038598;28;20487;-78
2020/12/29 10:42:10;;;;;;;19.07;11.80;;;4.70;97.20;;;;;;5053694;28;20040;-78
2020/12/29 10:44:37;;;;;;;19.80;11.70;;;4.70;97.20;;;;;;5050289;28;20033;-78
2020/12/29 10:47:04;;;;;;;23.27;12.83;;;4.80;97.20;;;;;;5051969;28;20041;-79
2020/12/29 10:49:30;;;;;;;17.63;11.37;;;4.80;97.20;;;;;;5015897;28;20043;-79
2020/12/29 10:51:57;;;;;;;23.58;14.15;;;4.80;97.20;;;;;;5016844;28;20052;-78
2020/12/29 10:54:23;;;;;;;23.50;13.47;;;4.90;97.20;;;;;;5049613;28;20377;-79
2020/12/29 10:56:50;;;;;;;24.10;14.23;;;4.90;97.20;;;;;;5050286;28;20033;-79
2020/12/29 10:59:17;;;;;;;26.63;15.40;;;4.90;97.20;;;;;;5003764;28;20029;-79
2020/12/29 11:01:43;;;;;;;24.58;14.52;;;4.90;97.10;;;;;;5013584;28;20036;-79
2020/12/29 11:04:10;;;;;;;22.70;14.27;;;4.90;97.10;;;;;;5047367;28;20052;-79
2020/12/29 11:06:36;;;;;;;25.17;15.97;;;5.00;97.20;;;;;;5014743;28;20037;-78
2020/12/29 11:09:04;;;;;;;33.27;19.90;;;5.00;97.20;;;;;;5048428;28;20052;-79
2020/12/29 11:11:31;;;;;;;29.23;18.13;;;5.00;97.20;;;;;;5052981;28;20047;-79
2020/12/29 11:13:57;;;;;;;30.92;18.60;;;5.00;97.10;;;;;;5027544;28;20033;-80
2020/12/29 11:16:24;;;;;;;30.20;18.17;;;5.00;97.10;;;;;;5013709;28;20056;-83
2020/12/29 11:18:50;;;;;;;32.63;19.85;;;5.00;97.20;;;;;;5045112;28;20037;-79
2020/12/29 11:21:19;;;;;;;27.73;17.60;;;5.00;97.20;;;;;;4998283;28;20044;-79
2020/12/29 11:23:46;;;;;;;31.48;19.80;;;5.00;97.20;;;;;;5042672;28;20033;-79
2020/12/29 11:26:17;;;;;;;28.63;18.13;;;5.00;97.20;;;;;;5031592;28;20048;-81
2020/12/29 11:28:44;;;;;;;25.63;16.13;;;4.90;97.20;;;;;;5047431;28;20047;-78
2020/12/29 11:31:13;;;;;;;26.67;16.13;;;4.90;97.20;;;;;;5051661;28;20069;-79
2020/12/29 11:33:40;;;;;;;28.53;16.90;;;4.80;97.30;;;;;;5029585;28;20412;-79
2020/12/29 11:36:07;;;;;;;27.40;16.58;;;4.90;97.40;;;;;;5019738;28;20387;-79
2020/12/29 11:38:34;;;;;;;28.65;16.77;;;4.80;97.40;;;;;;5043613;28;20049;-78
2020/12/29 11:41:00;;;;;;;29.53;17.73;;;4.80;97.50;;;;;;5050875;28;20083;-78
2020/12/29 11:43:27;;;;;;;24.42;16.38;;;4.80;97.50;;;;;;5044922;28;20065;-78
2020/12/29 11:45:54;;;;;;;24.65;16.80;;;4.80;97.50;;;;;;5050160;28;20049;-78
2020/12/29 11:48:20;;;;;;;29.42;18.92;;;4.80;97.80;;;;;;5046973;28;20040;-78
2020/12/29 11:50:46;;;;;;;30.02;17.63;;;4.80;97.50;;;;;;5052535;28;20055;-78
2020/12/29 11:53:13;;;;;;;28.17;18.08;;;4.80;97.60;;;;;;5051193;28;20029;-80
2020/12/29 11:55:40;;;;;;;27.13;16.03;;;4.80;97.60;;;;;;5046747;28;20033;-78
2020/12/29 11:58:07;;;;;;;29.30;19.27;;;4.90;97.90;;;;;;5049782;28;20506;-79
2020/12/29 12:00:33;;;;;;;26.70;17.42;;;4.90;97.60;;;;;;5032330;28;20384;-78
2020/12/29 12:03:00;;;;;;;23.90;16.13;;;4.90;97.60;;;;;;5028897;28;20412;-78
2020/12/29 12:05:26;;;;;;;28.10;17.25;;;5.00;97.60;;;;;;5031936;28;20037;-80
2020/12/29 12:07:53;;;;;;;33.25;20.08;;;5.00;97.60;;;;;;5048741;28;20043;-78
2020/12/29 12:10:19;;;;;;;31.52;20.67;;;5.00;97.60;;;;;;5050172;28;20478;-78
2020/12/29 12:12:46;;;;;;;32.85;19.95;;;5.00;97.50;;;;;;4996301;28;20056;-78
2020/12/29 12:15:12;;;;;;;32.13;20.02;;;5.00;97.50;;;;;;5044189;28;20048;-77
2020/12/29 12:17:39;;;;;;;34.33;20.33;;;5.00;97.50;;;;;;5030649;28;20411;-78
2020/12/29 12:20:05;;;;;;;25.08;15.63;;;5.00;97.50;;;;;;5026021;28;20040;-78
2020/12/29 12:22:32;;;;;;;31.40;19.73;;;5.00;97.50;;;;;;5031853;28;20484;-78
2020/12/29 12:24:58;;;;;;;29.57;18.43;;;5.00;97.50;;;;;;5032919;28;20041;-78
2020/12/29 12:27:25;;;;;;;29.95;19.33;;;5.00;97.50;;;;;;4997360;28;20510;-77
2020/12/29 12:29:51;;;;;;;39.43;20.83;;;5.00;97.60;;;;;;5018666;28;20045;-77
2020/12/29 12:32:18;;;;;;;32.55;21.00;;;5.10;97.60;;;;;;5030983;28;20040;-77
2020/12/29 12:34:44;;;;;;;39.00;24.80;;;5.10;97.50;;;;;;5049076;28;20049;-75
2020/12/29 12:37:11;;;;;;;42.75;24.42;;;5.20;97.50;;;;;;5027501;28;20044;-76
2020/12/29 12:39:40;;;;;;;40.40;24.97;;;5.20;97.50;;;;;;5030301;28;20385;-75
2020/12/29 12:42:10;;;;;;;40.85;25.73;;;5.20;97.40;;;;;;5045172;28;20037;-75
2020/12/29 12:44:39;;;;;;;39.90;24.05;;;5.30;97.40;;;;;;5043001;28;20059;-75
2020/12/29 12:47:06;;;;;;;40.35;24.70;;;5.30;97.40;;;;;;5028037;28;20049;-76
2020/12/29 12:49:33;;;;;;;48.22;28.30;;;5.30;97.40;;;;;;5026257;28;20046;-76